Monday, December 17, 2018, 6:01 AM EST
Back to Local

KFDK, Frederick, Frederick Municipal Airport

Location: Frederick, MD, United States Lat: 39.417
Local Time: 6:01 AM EST (11:01 GMT) Lon: -77.374
Time Zone: US/Eastern Elev: 301 ft

Show me the last for .
Show Coded

Time T Td Feel RH Dir Speed Gust Alt SLP Vis Weather Sky Remarks
2018-12-17 05:45 45 36 42 70 240° 5 - 29.91 - 10 CLR None
2018-12-17 05:25 45 36 43 70 270° 3 - 29.90 - 10 CLR None
2018-12-17 05:05 45 36 41 70 230° 7 - 29.89 - 10 CLR None
2018-12-17 04:45 45 36 42 70 210° 5 - 29.89 - 10 SCT032 None
2018-12-17 04:25 45 36 37 70 230° 8 18 29.90 - 10 CLR None
2018-12-17 04:05 45 36 40 70 270° 8 - 29.91 - 10 CLR None
2018-12-17 03:45 43 37 39 81 270° 7 - 29.92 - 10 SCT036 None
2018-12-17 03:25 43 37 39 81 260° 7 - 29.92 - 10 SCT036 None
2018-12-17 03:05 43 37 39 81 270° 7 - 29.93 - 10 CLR None
2018-12-17 02:45 41 37 36 86 240° 7 - 29.93 - 10 CLR None
2018-12-17 02:25 43 37 38 81 240° 8 - 29.93 - 10 BKN029 None
2018-12-17 02:05 45 39 42 81 250° 5 - 29.93 - 10 OVC029 None
2018-12-17 01:45 45 39 42 81 270° 5 - 29.92 - 10 OVC027 None
2018-12-17 01:25 43 39 39 86 270° 6 - 29.92 - 10 OVC027 None
2018-12-17 01:05 43 39 40 86 270° 5 - 29.92 - 10 OVC025 None
2018-12-17 00:45 43 39 - 86 - Calm - 29.93 - 10 OVC025 None
2018-12-17 00:25 43 39 - 86 - Calm - 29.93 - 10 OVC025 None
2018-12-17 00:05 43 39 - 86 - Calm - 29.93 - 10 OVC027 None
2018-12-16 23:45 43 39 - 86 - Calm - 29.94 - 10 OVC027 None
2018-12-16 23:25 43 37 41 81 250° 3 - 29.94 - 10 OVC029 None
2018-12-16 23:05 43 37 - 81 - Calm - 29.94 - 10 OVC029 None
2018-12-16 22:45 43 37 - 81 - Calm - 29.94 - 10 OVC031 None
2018-12-16 22:25 43 37 - 81 - Calm - 29.94 - 10 OVC033 None
2018-12-16 22:05 41 37 - 86 - Calm - 29.95 - 10 SCT023 BKN037 None
2018-12-16 21:45 39 36 35 86 300° 6 - 29.94 - 10 SCT023 SCT027 SCT070 None
2018-12-16 21:25 39 36 - 86 - Calm - 29.95 - 10 SCT038 BKN070 None
2018-12-16 20:47 43 37 41 81 300° 3 - 29.96 - 10 OVC038 None
2018-12-16 19:47 43 39 - 86 - Calm - 29.96 - 10 BKN038 OVC044 None
2018-12-16 18:47 43 39 - 86 - Calm - 29.96 - 10 SCT023 OVC029 None
2018-12-16 17:47 43 39 38 86 10° 8 - 29.94 - 7 OVC020 None
2018-12-16 16:47 43 39 38 86 10° 8 - 29.92 - 7 OVC035 None
2018-12-16 15:49 43 39 38 86 10° 8 - 29.92 - 7 OVC016 None
2018-12-16 15:20 43 41 37 93 10° 10 - 29.92 - 7 OVC011 None
2018-12-16 14:47 43 41 37 93 10° 10 - 29.90 - 5 BR OVC009 None
2018-12-16 13:47 43 41 41 93 10° 3 - 29.88 - 7 OVC007 None
2018-12-16 12:47 43 41 37 93 20° 10 - 29.89 - 4 BR OVC007 None
2018-12-16 11:47 43 41 37 93 20° 10 - 29.91 - 3 BR OVC005 None
2018-12-16 10:47 43 41 37 93 30° 10 - 29.94 - 3 BR OVC007 None
2018-12-16 09:47 43 43 36 100 20° 14 - 29.95 - 4 BR OVC007 None
2018-12-16 08:47 43 43 37 100 20° 9 - 29.96 - 3 BR OVC005 None
2018-12-16 07:47 45 43 37 93 30° 10 16 29.95 - 3 -RA BKN005 OVC010 None
2018-12-16 07:00 45 43 37 93 30° 9 16 29.94 - 3 DZ BKN005 OVC011 None
2018-12-16 06:45 45 43 42 93 20° 5 - 29.94 - 4 DZ BKN005 OVC011 1-hr Precip Total: 0.01"
2018-12-16 06:25 45 43 39 93 30° 7 10 29.95 - 3 -RA OVC011 None
2018-12-16 06:05 45 43 39 93 20° 10 - 29.94 - 5 BR OVC011 None

Support USWX by starting your Amazon purchase here.